Terminal Aerodrome Forecast
Issued by NWS Greer, SC

Home | Current Version | Previous Version | Text Only | Print | Product List | Glossary On
Versions: 1 2 3 4 5 6 7 8 9 10 11 12 13 14 15 16
000
FTUS42 KGSP 291120
TAFGSP
TAF
KGSP 291120Z 2912/3012 19005KT P6SM SCT250
     FM291500 22006G14KT P6SM BKN250
     FM291800 22010G17KT P6SM SCT110 BKN250
     FM300100 22006G14KT P6SM SCT060 BKN110
     FM300600 26006G14KT P6SM SCT060 BKN110
     FM300800 31008G16KT P6SM FEW060 SCT110 BKN250=

USA.gov is the U.S. government's official web portal to all federal, state and local government web resources and services.